Acapulco, Mexico

3:45 PM CDT on July 29, 2016 (GMT -0500)
Gen Juan N Alvarez International | | Change Station

Elev 16 ft 16.76 °N, 99.75 °W | Updated 1 hour ago

Mostly Cloudy
Mostly Cloudy
86 °F
Feels Like 95 °F
N
8
Wind Variable Wind from WSW

Today
High -- | Low -- °F
--% Chance of Precip.
Yesterday
High -- | Low -- °F
Precip. -- in
Pressure 29.85 in
Visibility 8.0 miles
Clouds Mostly Cloudy 30000 ft
Heat Index 95 °F
Dew Point 75 °F
Humidity 70%
Rainfall 1.55 in
Snow Depth Not available.
7:18 AM 8:12 PM
Waning Crescent, 19% visible
METAR MMAA 291945Z 25007KT 8SM BKN300 30/24 A2985 RMK 8/001 TCU N NE
Pressure 29.85 in
Visibility 8.0 miles
Clouds Mostly Cloudy 30000 ft
Heat Index 95 °F
Dew Point 75 °F
Humidity 70%
Rainfall 1.55 in
Snow Depth Not available.
7:18 AM 8:12 PM
Waning Crescent, 19% visible
METAR MMAA 291945Z 25007KT 8SM BKN300 30/24 A2985 RMK 8/001 TCU N NE

10-Day Weather Forecast

No radar image for this location.
×

Almanac

Astronomy

Jul. 29, 2016 Rise Set
Actual Time
Civil Twilight
Nautical Twilight
Astronomical Twilight
Moon
Length of Visible Light
Length of Day
Tomorrow will be .
, % of the Moon is Illuminated

Today's Extremes

Country Highs Country Lows

Community

WunderPhotos

Upload Photos

1,928,411 photos uploaded!

WunderBlog® & News

Nearby

Air Quality

  Air Quality AQ Index Pollutant
Not available.

Snow Depth

Station Depth Elevation

Earthquake Activity

City Distance Mag. Time & Date
Minimum magnitude displayed is 2.5.

Coastal Water Temperatures

Place Temperature

Stations

Nearby Weather Stations

Station Location Temp. Windchill Dew Point Humidity Wind Precip. Elev Updated Type